Latest Weather Observations for Warruwi

IDD60801

Issued at 11:01 am CST Tuesday 27 September 2016 (issued every 30 minutes, with the page automatically refreshed every 10 minutes)

About weather observations | Map of weather stations | Latest weather observations for NT | Other Formats
Station Details ID: 014401 Name: WARRUWI AIRPORT Lat: -11.65 Lon: 133.38 Height: 19.2 m
Data from the previous 72 hours. | See also: Recent months at Warruwi
Date/Time
CST
Temp
°C
App
Temp
°C
Dew
Point
°C
Rel
Hum
%
Delta-T
°C
Wind Press
QNH
hPa
Press
MSL
hPa
Rain since
9am
mm
Dir  Spd
km/h
Gust
km/h
Spd
kts
Gust
kts
27/11:00am 31.0 34.4 22.0 58 6.1 E 7 13 4 7 1012.3 1012.1 0.0
27/10:30am 30.6 33.6 21.9 59 5.9 E 9 15 5 8 1012.5 1012.3 0.0
27/10:00am 30.6 34.5 23.0 64 5.2 E 7 13 4 7 1012.7 1012.5 0.0
27/09:30am 30.1 34.2 23.0 65 4.9 E 6 9 3 5 1012.7 1012.5 0.0
27/09:00am 29.4 34.3 24.3 74 3.5 ESE 6 11 3 6 1012.6 1012.4 0.0
27/08:30am 28.9 33.9 24.5 77 3.1 SE 6 9 3 5 1012.4 1012.2 0.0
27/08:00am 28.5 34.4 24.1 77 3.0 CALM 0 2 0 1 1012.2 1012.0 0.0
27/07:30am 27.5 33.7 24.6 84 2.0 CALM 0 0 0 0 1011.9 1011.7 0.0
27/07:00am 26.4 32.6 24.6 90 1.2 CALM 0 0 0 0 1011.7 1011.5 0.0
27/06:30am 26.3 32.3 24.2 88 1.4 CALM 0 0 0 0 1011.2 1011.0 0.0
27/06:00am 26.4 32.3 24.1 87 1.6 CALM 0 0 0 0 1011.0 1010.8 0.0
27/05:30am 26.4 32.4 24.2 88 1.5 CALM 0 0 0 0 1010.6 1010.4 0.0
27/05:00am 26.3 31.9 24.2 88 1.4 NNE 2 4 1 2 1010.3 1010.1 0.0
27/04:30am 26.1 31.5 23.8 87 1.6 NNE 2 6 1 3 1010.1 1009.9 0.0
27/04:00am 26.3 31.4 24.0 87 1.6 NNE 4 6 2 3 1009.9 1009.7 0.0
27/03:30am 26.4 31.4 23.9 86 1.7 NNE 4 6 2 3 1009.7 1009.5 0.0
27/03:00am 26.4 31.3 23.7 85 1.9 NNE 4 6 2 3 1009.6 1009.4 0.0
27/02:30am 26.7 31.7 23.8 84 2.0 NNE 4 6 2 3 1009.7 1009.5 0.0
27/02:00am 27.2 32.2 23.9 82 2.3 NE 4 7 2 4 1009.9 1009.7 0.0
27/01:30am 27.4 32.0 23.8 81 2.5 NE 6 9 3 5 1010.3 1010.1 0.0
27/01:00am 27.5 32.2 23.9 81 2.5 NE 6 11 3 6 1010.7 1010.5 0.0
27/12:30am 27.6 32.1 23.6 79 2.7 ENE 6 7 3 4 1010.9 1010.7 0.0
27/12:00am 27.8 32.4 23.8 79 2.8 ENE 6 9 3 5 1011.1 1010.9 0.0
 
Date/Time
CST
Temp
°C
App
Temp
°C
Dew
Point
°C
Rel
Hum
%
Delta-T
°C
Wind Press
QNH
hPa
Press
MSL
hPa
Rain since
9am
mm
Dir  Spd
km/h
Gust
km/h
Spd
kts
Gust
kts
26/11:30pm 27.9 32.3 23.5 77 3.0 E 6 13 3 7 1011.5 1011.3 0.0
26/11:00pm 27.5 32.4 23.7 80 2.6 ENE 4 7 2 4 1011.6 1011.4 0.0
26/10:30pm 27.0 31.9 23.7 82 2.3 NE 4 7 2 4 1011.4 1011.2 0.0
26/10:00pm 26.8 32.1 23.7 83 2.1 ENE 2 6 1 3 1011.3 1011.1 0.0
26/09:30pm 26.6 32.0 23.3 82 2.3 CALM 0 0 0 0 1011.1 1010.9 0.0
26/09:00pm 26.8 32.2 23.3 81 2.4 CALM 0 0 0 0 1010.7 1010.5 0.0
26/08:30pm 27.3 32.7 23.3 79 2.7 CALM 0 0 0 0 1010.4 1010.2 0.0
26/08:00pm 27.6 32.6 23.2 77 3.0 NNE 2 4 1 2 1010.3 1010.1 0.0
26/07:30pm 27.9 32.6 23.3 76 3.2 NNE 4 7 2 4 1009.9 1009.7 0.0
26/07:00pm 28.2 32.7 22.9 73 3.6 NE 4 6 2 3 1009.6 1009.4 0.0
26/06:30pm 28.6 32.6 22.8 71 4.0 NNE 6 9 3 5 1009.6 1009.4 0.0
26/06:00pm 29.1 33.0 22.6 68 4.4 NE 6 9 3 5 1009.3 1009.1 0.0
26/05:30pm 29.7 33.5 22.7 66 4.8 NE 7 11 4 6 1009.0 1008.8 0.0
26/05:00pm 29.9 32.7 22.3 63 5.2 NE 11 19 6 10 1008.7 1008.5 0.0
26/04:30pm 31.2 34.1 22.5 60 5.9 NE 11 20 6 11 1008.8 1008.6 0.0
26/04:00pm 31.9 34.2 22.0 55 6.7 NE 13 22 7 12 1009.0 1008.8 0.0
26/03:30pm 31.8 33.3 21.3 53 7.1 E 15 22 8 12 1009.1 1008.9 0.0
26/03:00pm 31.3 32.3 20.3 52 7.3 E 15 20 8 11 1009.2 1009.0 0.0
26/02:30pm 32.0 34.2 21.8 54 6.9 E 13 20 7 11 1009.3 1009.1 0.0
26/02:00pm 31.4 33.9 22.4 59 6.1 E 13 20 7 11 1009.7 1009.5 0.0
26/01:30pm 31.3 33.7 22.3 58 6.1 E 13 19 7 10 1010.1 1009.9 0.0
26/01:00pm 31.8 34.3 21.0 52 7.2 ENE 9 15 5 8 1010.3 1010.1 0.0
26/12:30pm 32.1 34.5 20.0 48 8.0 ENE 7 17 4 9 1010.7 1010.5 0.0
26/12:00pm 31.4 33.4 20.0 50 7.5 E 9 17 5 9 1011.2 1011.0 0.0
26/11:30am 31.6 33.8 19.6 49 7.9 E 7 13 4 7 1011.4 1011.2 0.0
26/11:00am 31.6 34.2 21.2 54 7.0 E 9 13 5 7 1011.7 1011.5 0.0
26/10:30am 30.9 33.7 20.5 54 6.9 E 6 9 3 5 1012.0 1011.8 0.0
26/10:00am 30.4 34.5 22.3 62 5.5 SW 4 11 2 6 1012.2 1012.0 0.0
26/09:30am 29.9 33.2 21.8 62 5.5 E 7 11 4 6 1012.4 1012.2 0.0
26/09:00am 29.1 32.7 22.1 66 4.7 ENE 6 9 3 5 1012.3 1012.1 0.0
26/08:30am 29.1 33.1 22.8 69 4.3 ENE 6 9 3 5 1012.0 1011.8 0.0
26/08:00am 28.4 33.2 22.9 72 3.7 E 2 4 1 2 1011.8 1011.6 0.0
26/07:30am 26.9 32.3 23.2 80 2.5 CALM 0 0 0 0 1011.4 1011.2 0.0
26/07:00am 25.2 30.6 23.3 89 1.3 CALM 0 0 0 0 1011.0 1010.8 0.0
26/06:30am 24.6 29.7 22.7 89 1.3 CALM 0 2 0 1 1010.5 1010.3 0.0
26/06:00am 24.9 30.1 22.8 88 1.4 CALM 0 0 0 0 1010.1 1009.9 0.0
26/05:30am 25.0 29.8 22.9 88 1.4 NNE 2 4 1 2 1009.9 1009.7 0.0
26/05:00am 25.1 30.0 23.0 88 1.4 NNE 2 4 1 2 1009.7 1009.5 0.0
26/04:30am 25.2 29.8 23.1 88 1.4 NNE 4 4 2 2 1009.7 1009.5 0.0
26/04:00am 25.2 30.5 23.1 88 1.4 CALM 0 0 0 0 1009.6 1009.4 0.0
26/03:30am 25.3 30.7 23.2 88 1.4 CALM 0 0 0 0 1009.6 1009.4 0.0
26/03:00am 25.4 30.7 23.1 87 1.6 CALM 0 0 0 0 1009.4 1009.2 0.0
26/02:30am 25.4 30.7 23.1 87 1.6 CALM 0 0 0 0 1009.6 1009.4 0.0
26/02:00am 26.0 31.6 23.5 86 1.7 CALM 0 0 0 0 1009.8 1009.6 0.0
26/01:30am 25.8 31.1 23.1 85 1.8 CALM 0 0 0 0 1010.2 1010.0 0.0
26/01:00am 26.1 31.5 23.2 84 2.0 CALM 0 0 0 0 1010.2 1010.0 0.0
26/12:30am 26.5 32.0 23.4 83 2.1 CALM 0 0 0 0 1010.7 1010.5 0.0
26/12:00am 26.7 32.1 23.2 81 2.4 CALM 0 0 0 0 1011.1 1010.9 0.0
 
Date/Time
CST
Temp
°C
App
Temp
°C
Dew
Point
°C
Rel
Hum
%
Delta-T
°C
Wind Press
QNH
hPa
Press
MSL
hPa
Rain since
9am
mm
Dir  Spd
km/h
Gust
km/h
Spd
kts
Gust
kts
25/11:30pm 26.9 32.1 22.9 79 2.7 CALM 0 0 0 0 1011.1 1010.9 0.0
25/11:00pm 27.2 32.5 23.0 78 2.9 CALM 0 0 0 0 1010.9 1010.7 0.0
25/10:30pm 27.4 32.2 22.8 76 3.1 N 2 6 1 3 1010.9 1010.7 0.0
25/10:00pm 27.6 32.5 23.0 76 3.1 NNW 2 6 1 3 1010.8 1010.6 0.0
25/09:30pm 27.8 32.5 22.7 74 3.5 NNW 2 6 1 3 1010.6 1010.4 0.0
25/09:00pm 28.0 32.7 22.7 73 3.6 N 2 6 1 3 1010.3 1010.1 0.0
25/08:30pm 28.2 32.9 22.7 72 3.7 N 2 6 1 3 1009.9 1009.7 0.0
25/08:00pm 28.4 32.9 22.9 72 3.7 N 4 7 2 4 1009.5 1009.3 0.0
25/07:30pm 28.6 33.0 22.8 71 4.0 N 4 7 2 4 1009.1 1008.9 0.0
25/07:00pm 28.9 33.4 22.9 70 4.1 NNW 4 11 2 6 1008.6 1008.4 0.0
25/06:30pm 29.5 34.0 23.0 68 4.5 N 4 9 2 5 1008.1 1007.9 0.0
25/06:00pm 30.5 33.8 21.9 60 5.8 NNE 7 11 4 6 1007.8 1007.6 0.0
25/05:30pm 30.6 34.7 23.3 65 5.0 N 7 13 4 7 1007.5 1007.3 0.0
25/05:00pm 31.5 35.1 23.1 61 5.8 NNW 9 15 5 8 1007.3 1007.1 0.0
25/04:30pm 32.7 36.4 22.5 55 7.0 N 7 13 4 7 1007.3 1007.1 0.0
25/04:00pm 32.7 36.4 22.2 54 7.2 N 6 9 3 5 1007.4 1007.2 0.0
25/03:30pm 32.6 35.8 22.4 55 7.0 NE 9 17 5 9 1007.5 1007.3 0.0
25/03:00pm 32.6 35.5 22.4 55 7.0 NNE 11 20 6 11 1007.4 1007.2 0.0
25/02:30pm 32.1 35.8 22.5 57 6.6 ENE 7 13 4 7 1007.7 1007.5 0.0
25/02:00pm 31.4 35.2 22.7 60 6.0 N 7 15 4 8 1007.9 1007.7 0.0
25/01:30pm 31.1 34.5 22.7 61 5.8 NNW 9 17 5 9 1008.3 1008.1 0.0
25/01:00pm 30.9 35.0 23.3 64 5.2 N 7 13 4 7 1008.7 1008.5 0.0
25/12:30pm 30.4 34.1 23.3 66 4.9 WNW 9 15 5 8 1009.2 1009.0 0.0
25/12:00pm 30.0 33.9 22.9 65 4.9 WNW 7 15 4 8 1009.8 1009.6 0.0
25/11:30am 29.5 33.2 23.2 69 4.3 W 9 15 5 8 1010.4 1010.2 0.0
25/11:00am 30.0 34.9 23.7 69 4.4 NW 4 6 2 3 1010.7 1010.5 0.0
25/10:30am 28.9 33.2 23.3 72 3.8 WNW 6 11 3 6 1010.7 1010.5 0.0
25/10:00am 28.6 32.7 23.3 73 3.6 W 7 13 4 7 1011.1 1010.9 0.0
25/09:30am 28.2 32.5 23.3 75 3.4 W 6 9 3 5 1011.0 1010.8 0.0
25/09:00am 28.8 33.0 23.5 73 3.6 WSW 7 11 4 6 1011.1 1010.9 0.0
25/08:30am 28.6 32.9 23.7 75 3.4 W 7 9 4 5 1011.0 1010.8 0.0
25/08:00am 27.9 33.1 23.5 77 3.0 SW 2 4 1 2 1010.5 1010.3 0.0
25/07:30am 27.0 32.0 23.9 83 2.1 SW 4 6 2 3 1010.1 1009.9 0.0
25/07:00am 25.9 31.6 23.8 88 1.4 CALM 0 2 0 1 1009.9 1009.7 0.0
25/06:30am 25.6 31.3 23.8 90 1.2 CALM 0 0 0 0 1009.4 1009.2 0.0
25/06:00am 25.9 31.7 23.9 89 1.4 CALM 0 2 0 1 1009.2 1009.0 0.0
25/05:30am 26.1 30.9 24.1 89 1.4 WSW 6 6 3 3 1009.1 1008.9 0.0
25/05:00am 26.2 32.2 24.2 89 1.4 CALM 0 0 0 0 1008.9 1008.7 0.0
25/04:30am 26.2 32.4 24.6 91 1.1 CALM 0 0 0 0 1008.8 1008.6 0.0
25/04:00am 25.9 31.8 24.1 90 1.2 CALM 0 0 0 0 1008.7 1008.5 0.0
25/03:30am 26.1 32.0 24.1 89 1.4 CALM 0 0 0 0 1008.8 1008.6 0.0
25/03:00am 26.0 31.5 24.0 89 1.4 W 2 4 1 2 1008.7 1008.5 0.0
25/02:30am 26.3 32.3 24.2 88 1.5 CALM 0 4 0 2 1008.7 1008.5 0.0
25/02:00am 26.3 31.9 24.2 88 1.4 W 2 2 1 1 1008.7 1008.5 0.0
25/01:30am 26.4 32.3 24.1 87 1.6 CALM 0 0 0 0 1008.9 1008.7 0.0
25/01:00am 26.3 32.1 24.0 87 1.6 CALM 0 0 0 0 1009.0 1008.8 0.0
25/12:30am 26.4 31.8 23.9 86 1.7 SW 2 4 1 2 1009.5 1009.3 0.0
25/12:00am 26.8 32.6 23.9 84 2.0 CALM 0 0 0 0 1009.6 1009.4 0.0
 
Date/Time
CST
Temp
°C
App
Temp
°C
Dew
Point
°C
Rel
Hum
%
Delta-T
°C
Wind Press
QNH
hPa
Press
MSL
hPa
Rain since
9am
mm
Dir  Spd
km/h
Gust
km/h
Spd
kts
Gust
kts
24/11:30pm 26.9 32.6 23.8 83 2.1 CALM 0 2 0 1 1009.9 1009.7 0.0
24/11:00pm 27.2 32.9 23.7 81 2.4 CALM 0 2 0 1 1010.0 1009.8 0.0
24/10:30pm 27.5 32.8 23.7 80 2.6 NNE 2 4 1 2 1009.7 1009.5 0.0
24/10:00pm 27.5 32.3 23.5 79 2.7 N 4 6 2 3 1009.5 1009.3 0.0
24/09:30pm 27.6 32.3 23.4 78 2.9 NNE 4 7 2 4 1009.1 1008.9 0.0
24/09:00pm 27.7 32.3 23.1 76 3.1 NNE 4 6 2 3 1009.0 1008.8 0.0
24/08:30pm 27.8 32.3 23.0 75 3.3 NE 4 6 2 3 1008.7 1008.5 0.0
24/08:00pm 27.9 32.3 22.8 74 3.5 NE 4 7 2 4 1008.4 1008.2 0.0
24/07:30pm 27.9 31.7 22.4 72 3.7 NE 6 11 3 6 1008.1 1007.9 0.0
24/07:00pm 28.2 31.8 22.0 69 4.2 NNE 6 11 3 6 1007.9 1007.7 0.0
24/06:30pm 29.0 32.1 21.0 62 5.3 NNE 6 9 3 5 1007.5 1007.3 0.0
24/06:00pm 29.9 32.4 20.2 56 6.4 NE 7 9 4 5 1007.4 1007.2 0.0
24/05:30pm 30.2 32.7 20.2 55 6.6 NNE 7 11 4 6 1007.1 1006.9 0.0
24/05:00pm 31.0 32.7 19.4 50 7.6 NE 9 15 5 8 1007.0 1006.8 0.0
24/04:30pm 31.3 32.8 19.0 48 8.0 ENE 9 13 5 7 1006.9 1006.7 0.0
24/04:00pm 31.1 33.0 19.8 51 7.4 E 9 17 5 9 1007.1 1006.9 0.0
24/03:30pm 31.4 32.8 20.4 52 7.3 E 13 17 7 9 1007.2 1007.0 0.0
24/03:00pm 31.5 32.9 20.4 51 7.4 E 13 19 7 10 1007.5 1007.3 0.0
24/02:30pm 31.4 32.8 21.0 54 7.0 ESE 15 19 8 10 1007.9 1007.7 0.0
24/02:00pm 31.3 33.1 21.8 57 6.4 ESE 15 20 8 11 1008.3 1008.1 0.0
24/01:30pm 32.4 33.8 19.6 46 8.4 ENE 11 15 6 8 1008.9 1008.7 0.0
24/01:00pm 32.0 32.3 15.9 38 10.1 E 9 15 5 8 1009.5 1009.3 0.0
24/12:30pm 31.6 33.5 18.9 47 8.3 E 7 9 4 5 1010.1 1009.9 0.0
24/12:00pm 31.2 33.1 20.5 53 7.1 E 11 15 6 8 1010.5 1010.3 0.0
24/11:30am 31.2 34.5 21.4 56 6.6 E 6 13 3 7 1010.8 1010.6 0.0

Other Formats:

Comma delimited format used in spreadsheet applications
http://www.bom.gov.au/fwo/IDD60801/IDD60801.94139.axf

JavaScript Object Notation format (JSON) in row-major order
http://www.bom.gov.au/fwo/IDD60801/IDD60801.94139.json